Terminal Aerodrome Forecast
Issued by NWS

Home | Current Version | Previous Version | Graphics & Text | Print | Product List | Glossary On
Versions: 1 2 3 4 5 6 7 8 9 10 11 12 13 14 15 16
000
FTUS43 KMPX 300800 AAB
TAFAXN
TAF AMD
KAXN 300849Z 3009/3106 35007KT P6SM SCT004 BKN008 OVC012
      TEMPO 3010/3014 4SM BR BKN004
     FM301600 36006KT P6SM BKN010 OVC020
     FM301800 36004KT P6SM BKN020 OVC030
     FM302100 VRB03KT P6SM FEW020 BKN040
     FM310000 14006KT P6SM FEW250=

USA.gov is the U.S. government's official web portal to all federal, state and local government web resources and services.